Quinby, Virginia
Current Conditions -  °F | °C
As of 3:55 PM on Tuesday 27 Jan 2015 (Local Time) from KMFV Reporting Station
Overcast Overcast  
Wind Chill: 23°   Ceiling: 2000
Heat Index: 34°   Visibility: 10mi
Dew Point: 28°   Wind: 17mph
Humidity: 81%   Direction: 310°NW
Pressure: 29.76"   Gusts: 22mph
Location:  37.55°N, 75.73°W
Report Text: KMFV 272055Z AUTO 31015G19KT 10SM OVC020 01/M02 A2976 RMK AO2
Loading
Personal Weather Stations






























Interactive Weather Map New forecast layout! Learn more

10-Day Weather Forecast

Advertisements
Track Severe Weather on mobile